PST,Max TemperatureF,Mean TemperatureF,Min TemperatureF,Max Dew PointF,MeanDew PointF,Min DewpointF,Max Humidity, Mean Humidity, Min Humidity, Max Sea Level PressureIn, Mean Sea Level PressureIn, Min Sea Level PressureIn, Max VisibilityMiles, Mean VisibilityMiles, Min VisibilityMiles, Max Wind SpeedMPH, Mean Wind SpeedMPH, Max Gust SpeedMPH,PrecipitationIn, CloudCover, Events, WindDirDegrees
2012-12-1,58,42,26,37,32,24,96,70,43,30.08,30.00,29.94,10,10,10,12,5,15,0.00,2,,330
2012-12-2,66,50,33,43,36,31,92,62,31,29.96,29.87,29.77,10,10,10,16,6,28,0.02,4,Rain,335
2012-12-3,60,45,29,37,33,27,92,66,39,30.22,30.12,29.99,10,10,10,9,4,13,0.00,0,,332
2012-12-4,60,45,30,37,33,28,92,67,42,30.33,30.24,30.17,10,10,10,12,4,16,0.00,1,,348
2012-12-5,61,46,30,42,35,29,92,66,39,30.17,30.10,30.04,10,10,10,13,4,17,T,3,,349
2012-12-6,66,48,30,38,32,24,92,60,28,30.06,29.99,29.89,10,10,10,20,5,29,0.00,0,,320
2012-12-7,64,45,26,32,18,7,62,38,13,30.11,30.03,29.95,10,10,10,21,8,28,0.00,0,,305
2012-12-8,64,42,20,16,11,6,57,34,11,30.06,30.00,29.91,10,10,10,13,5,17,0.00,0,,324
2012-12-9,64,47,29,22,20,16,53,36,19,30.22,30.13,30.03,10,10,10,26,13,32,0.00,0,,340
2012-12-10,68,47,25,26,16,5,63,37,11,30.25,30.16,30.09,10,10,10,25,8,32,0.00,0,,326
2012-12-11,59,41,23,16,12,9,60,38,15,30.11,29.96,29.77,10,10,10,14,4,20,0.00,0,,284
2012-12-12,60,40,19,28,16,10,68,41,14,29.76,29.67,29.60,10,10,10,28,12,37,0.00,2,,149
2012-12-13,46,40,33,34,29,24,96,73,49,29.75,29.71,29.66,10,9,2,18,9,24,0.23,7,Rain-Snow,349
2012-12-14,45,35,25,25,21,16,81,56,31,29.84,29.73,29.68,10,10,10,17,5,23,0.00,4,,327
2012-12-15,45,34,22,23,18,13,69,49,28,29.98,29.90,29.83,10,10,10,15,5,20,0.00,3,,270
2012-12-16,44,32,20,23,20,15,84,62,40,30.09,30.04,29.96,10,10,8,8,3,12,0.00,1,,319
2012-12-17,55,35,15,25,19,12,88,59,29,30.07,29.95,29.78,10,10,10,13,5,20,0.00,0,,310
2012-12-18,50,37,23,24,16,5,81,52,23,30.00,29.76,29.65,10,10,5,40,14,53,0.00,4,,347
2012-12-19,42,27,11,9,-1,-15,57,33,9,30.39,30.25,30.06,10,10,10,20,6,23,0.00,0,,329
2012-12-20,43,24,5,1,-2,-5,69,41,13,30.42,30.31,30.19,10,10,10,17,5,22,0.00,0,,327
2012-12-21,42,24,5,5,1,-3,69,45,20,30.23,30.14,30.06,10,10,10,10,4,16,0.00,0,,341
2012-12-22,43,25,7,35,19,0,100,65,29,30.07,30.02,29.91,10,10,5,20,6,24,0.09,5,Rain,345
2012-12-23,46,33,20,35,28,18,92,77,62,30.06,29.97,29.83,10,10,10,13,5,22,0.01,3,Rain,20
2012-12-24,49,38,27,34,26,16,96,61,26,30.12,29.97,29.85,10,10,4,25,10,33,0.17,3,Rain,324
2012-12-25,42,31,19,28,22,16,84,61,37,30.18,29.99,29.85,10,7,0,17,5,22,0.08,4,Fog-Snow,179
2012-12-26,36,27,18,29,24,14,100,88,75,29.98,29.84,29.78,10,4,0,8,3,9,0.07,7,Fog-Snow,315
2012-12-27,42,28,14,23,17,12,88,64,39,30.17,30.06,29.96,10,10,10,16,7,22,0.00,1,,341
2012-12-28,36,23,10,20,14,7,81,60,38,30.25,30.17,30.08,10,10,10,9,3,10,0.00,1,,307
2012-12-29,38,27,16,21,17,14,84,62,40,30.11,30.06,29.99,10,10,10,8,3,9,0.00,6,,331
2012-12-30,40,28,16,22,17,12,84,64,44,30.16,30.04,29.97,10,10,10,22,9,31,T,4,,351
2012-12-31,47,31,14,18,11,6,74,47,19,30.28,30.19,30.12,10,10,10,16,6,21,0.00,0,,313